sensor_id;sensor_type;location;lat;lon;timestamp;temperature;humidity
55151;DHT22;41041;43.162;20.538;2023-02-15T07:33:44;128.10;2150.40
55151;DHT22;41041;43.162;20.538;2023-02-15T07:36:10;103.20;2150.40
55151;DHT22;41041;43.162;20.538;2023-02-15T07:38:39;103.20;2176.00
55151;DHT22;41041;43.162;20.538;2023-02-15T07:41:09;103.20;2176.00
55151;DHT22;41041;43.162;20.538;2023-02-15T07:43:40;103.30;2176.00
55151;DHT22;41041;43.162;20.538;2023-02-15T07:46:14;103.30;2176.00
55151;DHT22;41041;43.162;20.538;2023-02-15T07:48:41;103.30;2176.00
55151;DHT22;41041;43.162;20.538;2023-02-15T07:51:11;128.00;2201.60
55151;DHT22;41041;43.162;20.538;2023-02-15T07:53:37;128.00;2201.60
55151;DHT22;41041;43.162;20.538;2023-02-15T07:56:06;128.10;2201.60
55151;DHT22;41041;43.162;20.538;2023-02-15T07:58:33;128.10;2201.60
55151;DHT22;41041;43.162;20.538;2023-02-15T08:41:15;154.00;2150.40
55151;DHT22;41041;43.162;20.538;2023-02-15T08:43:43;153.90;2150.40
55151;DHT22;41041;43.162;20.538;2023-02-15T08:46:10;153.70;2150.40
55151;DHT22;41041;43.162;20.538;2023-02-15T08:48:37;153.70;2150.40
55151;DHT22;41041;43.162;20.538;2023-02-15T08:51:24;153.70;2150.40
55151;DHT22;41041;43.162;20.538;2023-02-15T08:53:56;153.70;2124.80
55151;DHT22;41041;43.162;20.538;2023-02-15T08:56:29;153.80;2124.80
55151;DHT22;41041;43.162;20.538;2023-02-15T08:59:02;153.90;2099.20
55151;DHT22;41041;43.162;20.538;2023-02-15T09:01:33;153.80;2099.20
55151;DHT22;41041;43.162;20.538;2023-02-15T09:04:04;154.20;2099.20
55151;DHT22;41041;43.162;20.538;2023-02-15T11:07:43;205.10;1792.00
55151;DHT22;41041;43.162;20.538;2023-02-15T11:13:16;205.10;1792.00
55151;DHT22;41041;43.162;20.538;2023-02-15T11:15:51;205.20;1817.60
55151;DHT22;41041;43.162;20.538;2023-02-15T11:18:26;205.10;1792.00
55151;DHT22;41041;43.162;20.538;2023-02-15T11:23:43;205.20;1817.60
55151;DHT22;41041;43.162;20.538;2023-02-15T11:26:33;205.20;1792.00
55151;DHT22;41041;43.162;20.538;2023-02-15T11:29:33;205.30;1843.20
55151;DHT22;41041;43.162;20.538;2023-02-15T11:37:04;205.60;1817.60
55151;DHT22;41041;43.162;20.538;2023-02-15T11:42:04;205.60;1740.80
55151;DHT22;41041;43.162;20.538;2023-02-15T11:44:49;205.50;1792.00
55151;DHT22;41041;43.162;20.538;2023-02-15T11:49:45;230.40;1715.20
55151;DHT22;41041;43.162;20.538;2023-02-15T11:52:14;205.60;1740.80
55151;DHT22;41041;43.162;20.538;2023-02-15T11:54:50;205.40;1740.80
55151;DHT22;41041;43.162;20.538;2023-02-15T11:57:37;205.40;1766.40
55151;DHT22;41041;43.162;20.538;2023-02-15T12:00:37;205.50;1766.40
55151;DHT22;41041;43.162;20.538;2023-02-15T12:03:27;230.50;1715.20
55151;DHT22;41041;43.162;20.538;2023-02-15T13:39:51;256.00;1587.20
55151;DHT22;41041;43.162;20.538;2023-02-15T13:42:32;256.10;1612.80
55151;DHT22;41041;43.162;20.538;2023-02-15T13:45:38;256.10;1612.80
55151;DHT22;41041;43.162;20.538;2023-02-15T13:56:28;256.50;1587.20
55151;DHT22;41041;43.162;20.538;2023-02-15T13:59:15;256.50;1587.20
55151;DHT22;41041;43.162;20.538;2023-02-15T14:15:12;256.80;1561.60
55151;DHT22;41041;43.162;20.538;2023-02-15T14:25:57;281.70;1561.60
55151;DHT22;41041;43.162;20.538;2023-02-15T14:28:43;281.70;1561.60
55151;DHT22;41041;43.162;20.538;2023-02-15T14:31:13;281.90;1561.60
55151;DHT22;41041;43.162;20.538;2023-02-15T14:33:54;281.90;1536.00
55151;DHT22;41041;43.162;20.538;2023-02-15T14:36:22;281.80;1536.00
55151;DHT22;41041;43.162;20.538;2023-02-15T14:39:26;281.90;1536.00
55151;DHT22;41041;43.162;20.538;2023-02-15T14:48:12;282.00;1536.00
55151;DHT22;41041;43.162;20.538;2023-02-15T14:50:45;282.00;1536.00
55151;DHT22;41041;43.162;20.538;2023-02-15T14:53:33;282.10;1536.00
55151;DHT22;41041;43.162;20.538;2023-02-15T14:58:33;282.20;1510.40
55151;DHT22;41041;43.162;20.538;2023-02-15T15:01:13;282.20;1510.40
55151;DHT22;41041;43.162;20.538;2023-02-15T15:03:49;282.20;1510.40
55151;DHT22;41041;43.162;20.538;2023-02-15T15:06:30;282.20;1510.40
55151;DHT22;41041;43.162;20.538;2023-02-15T15:09:18;282.10;1536.00
55151;DHT22;41041;43.162;20.538;2023-02-15T15:11:50;282.10;1561.60
55151;DHT22;41041;43.162;20.538;2023-02-15T15:17:02;282.10;1536.00
55151;DHT22;41041;43.162;20.538;2023-02-15T15:22:24;281.90;1561.60
55151;DHT22;41041;43.162;20.538;2023-02-15T15:24:58;282.00;1561.60
55151;DHT22;41041;43.162;20.538;2023-02-15T15:27:44;281.90;1561.60
55151;DHT22;41041;43.162;20.538;2023-02-15T15:41:02;281.90;1638.40
55151;DHT22;41041;43.162;20.538;2023-02-15T15:54:20;281.70;1689.60
55151;DHT22;41041;43.162;20.538;2023-02-15T15:56:51;256.80;1715.20
55151;DHT22;41041;43.162;20.538;2023-02-15T15:59:25;256.60;1689.60
55151;DHT22;41041;43.162;20.538;2023-02-15T16:01:51;256.30;1715.20
55151;DHT22;41041;43.162;20.538;2023-02-15T16:04:29;256.40;1715.20
55151;DHT22;41041;43.162;20.538;2023-02-15T16:06:56;256.10;1740.80
55151;DHT22;41041;43.162;20.538;2023-02-15T16:11:57;256.10;1740.80
55151;DHT22;41041;43.162;20.538;2023-02-15T16:21:54;230.80;1817.60
55151;DHT22;41041;43.162;20.538;2023-02-15T16:49:32;205.20;1817.60
55151;DHT22;41041;43.162;20.538;2023-02-15T16:52:02;205.00;1817.60
55151;DHT22;41041;43.162;20.538;2023-02-15T19:15:26;128.30;2073.60
55151;DHT22;41041;43.162;20.538;2023-02-15T19:17:52;103.30;2073.60
55151;DHT22;41041;43.162;20.538;2023-02-15T19:20:24;103.20;2073.60
55151;DHT22;41041;43.162;20.538;2023-02-15T19:22:51;103.30;2099.20
